Latest Weather Observations for Hobart Airport

IDT60901

Issued at 11:21 am EDT Tuesday 31 March 2015 (issued every 10 minutes, with the page automatically refreshed every 10 minutes)

About weather observations | Map of Hobart area stations | Latest observations for Hobart area | Other Formats
Station Details ID: 094008 Name: HOBART AIRPORT Lat: -42.83 Lon: 147.50 Height: 4.0 m
Data from the previous 72 hours. | See also: Recent months at Hobart Airport
Date/Time
EDT
Tmp

°C
App
Tmp
°C
Dew
Point
°C
Rel
Hum
%
Delta-T

°C
Wind Press
QNH
hPa
Press
MSL
hPa
Rain
since
9 am
mm
Dir
 
Spd
km/h
Gust
km/h
Spd
kts
Gust
kts
31/11:00am 16.3 12.5 7.7 56 4.3 N 17 28 9 15 1023.5 1023.5 0.0
31/10:30am 15.7 11.4 7.9 59 3.9 NNW 20 26 11 14 1023.9 1023.9 0.0
31/10:00am 15.1 12.1 7.6 61 3.7 NNW 13 24 7 13 1024.0 1024.0 0.0
31/09:30am 14.1 10.7 7.6 65 3.2 NW 15 20 8 11 1024.1 1024.1 0.0
31/09:00am 12.3 9.3 7.5 72 2.3 NNW 13 19 7 10 1024.2 1024.2 0.2
31/08:30am 11.7 9.4 7.6 76 2.0 WNW 9 13 5 7 1024.1 1024.1 0.2
31/08:00am 10.7 6.9 7.6 81 1.5 NW 17 19 9 10 1024.0 1024.0 0.2
31/07:30am 11.1 8.8 7.3 77 1.8 NNW 9 15 5 8 1023.6 1023.6 0.2
31/07:00am 10.9 8.9 7.3 78 1.7 NW 7 9 4 5 1023.4 1023.4 0.2
31/05:30am 12.1 9.0 7.1 71 2.4 N 13 19 7 10 1022.9 1022.9 0.2
31/05:00am 12.0 9.2 7.0 71 2.4 N 11 17 6 9 1022.8 1022.8 0.2
31/04:30am 11.7 9.3 7.1 73 2.2 NNW 9 13 5 7 1022.7 1022.7 0.2
31/04:00am 12.6 9.8 7.0 68 2.7 N 11 19 6 10 1022.7 1022.7 0.2
31/03:30am 12.5 9.5 7.8 73 2.3 NNW 13 19 7 10 1022.8 1022.8 0.2
31/03:00am 12.5 9.5 7.8 73 2.3 NNW 13 20 7 11 1022.9 1022.9 0.2
31/02:30am 12.6 9.5 7.4 70 2.5 N 13 17 7 9 1023.1 1023.1 0.2
31/02:00am 13.9 10.0 7.3 64 3.2 NNW 17 20 9 11 1023.0 1023.0 0.2
31/01:30am 13.3 9.5 7.6 68 2.8 NNW 17 24 9 13 1023.0 1023.0 0.2
31/01:00am 13.1 9.8 8.0 71 2.5 NNW 15 22 8 12 1023.0 1023.0 0.2
31/12:30am 14.4 10.6 7.5 63 3.4 NNW 17 24 9 13 1023.0 1023.0 0.2
 
Date/Time
EDT
Tmp

°C
App
Tmp
°C
Dew
Point
°C
Rel
Hum
%
Delta-T

°C
Wind Press
QNH
hPa
Press
MSL
hPa
Rain
since
9 am
mm
Dir
 
Spd
km/h
Gust
km/h
Spd
kts
Gust
kts
30/11:30pm 14.3 10.9 7.6 64 3.3 NNW 15 24 8 13 1023.1 1023.1 0.2
30/11:00pm 14.5 10.7 7.4 62 3.5 NNW 17 28 9 15 1023.1 1023.1 0.2
30/10:30pm 15.1 12.2 8.1 63 3.5 NNW 13 20 7 11 1023.0 1023.0 0.2
30/10:00pm 15.6 12.1 7.3 57 4.1 NNW 15 20 8 11 1022.9 1022.9 0.2
30/09:30pm 14.4 11.5 8.2 66 3.1 NNW 13 19 7 10 1022.9 1022.9 0.2
30/08:30pm 14.5 14.3 10.5 77 2.1 N 2 7 1 4 1022.3 1022.3 0.2
30/08:00pm 15.3 14.7 11.6 78 2.0 E 6 9 3 5 1021.8 1021.8 0.2
30/07:00pm 16.5 15.1 10.9 69 3.0 SSE 9 9 5 5 1020.7 1020.7 0.2
30/06:30pm 17.4 15.3 11.1 66 3.4 SSE 13 17 7 9 1020.4 1020.4 0.2
30/05:30pm 17.8 14.4 12.6 71 2.9 SE 22 32 12 17 1019.1 1019.1 0.2
30/05:00pm 21.8 17.7 8.0 41 7.2 SSW 19 26 10 14 1018.6 1018.6 0.2
30/04:30pm 22.9 19.1 5.6 32 8.7 WNW 15 20 8 11 1018.4 1018.4 0.2
30/04:00pm 22.8 18.9 6.9 36 8.2 W 17 22 9 12 1018.2 1018.2 0.2
30/03:30pm 22.7 17.9 7.5 37 7.9 NW 22 30 12 16 1018.1 1018.1 0.2
30/03:00pm 21.9 17.4 6.8 37 7.7 WNW 20 30 11 16 1018.0 1018.0 0.2
30/02:30pm 21.6 18.1 7.2 39 7.4 NW 15 22 8 12 1018.0 1018.0 0.2
30/02:00pm 22.0 17.8 8.3 41 7.2 NW 20 32 11 17 1018.0 1018.0 0.2
30/01:30pm 21.2 17.0 8.2 43 6.8 WNW 20 30 11 16 1018.0 1018.0 0.2
30/01:00pm 20.6 14.0 7.8 43 6.6 WNW 32 44 17 24 1018.3 1018.3 0.0
30/12:30pm 20.3 14.8 9.1 48 5.9 NW 28 37 15 20 1018.4 1018.4 0.0
30/12:00pm 19.1 15.0 8.5 50 5.5 NW 20 37 11 20 1018.7 1018.7 0.0
30/11:30am 18.3 15.3 9.1 55 4.8 NNW 15 20 8 11 1018.8 1018.8 0.0
30/11:00am 18.0 14.7 8.0 52 5.1 N 15 22 8 12 1018.8 1018.8 0.0
30/10:30am 17.5 14.0 8.8 56 4.5 NNW 17 24 9 13 1018.7 1018.7 0.0
30/10:00am 16.5 13.4 8.9 61 3.9 NNW 15 24 8 13 1018.5 1018.5 0.0
30/09:30am 15.9 13.2 8.9 63 3.6 N 13 17 7 9 1018.3 1018.3 0.0
30/09:00am 14.8 12.3 9.8 72 2.6 N 13 19 7 10 1018.1 1018.1 0.2
30/08:30am 13.8 11.0 8.4 70 2.7 N 13 20 7 11 1017.8 1017.8 0.2
30/08:00am 13.0 9.7 8.1 72 2.4 N 15 20 8 11 1017.7 1017.7 0.2
30/07:30am 11.3 8.1 8.5 83 1.4 N 15 20 8 11 1017.5 1017.5 0.2
30/07:00am 10.4 7.7 8.8 90 0.8 N 13 17 7 9 1017.1 1017.1 0.2
30/06:30am 10.3 8.3 8.7 90 0.8 N 9 11 5 6 1017.0 1017.0 0.2
30/06:00am 10.2 7.9 9.0 92 0.6 NNW 11 13 6 7 1016.9 1016.9 0.2
30/05:30am 9.9 8.4 9.1 95 0.4 NNW 7 11 4 6 1016.9 1016.9 0.2
30/05:00am 9.8 8.3 9.2 96 0.3 N 7 9 4 5 1017.0 1017.0 0.2
30/04:30am 10.0 8.2 9.4 96 0.3 NW 9 15 5 8 1017.0 1017.0 0.2
30/04:00am 9.6 8.0 8.8 95 0.4 NNW 7 9 4 5 1016.9 1016.9 0.2
30/03:30am 9.9 8.0 9.1 95 0.4 N 9 13 5 7 1017.0 1017.0 0.2
30/03:00am 9.9 7.7 9.5 97 0.2 NW 11 15 6 8 1017.3 1017.3 0.2
30/02:30am 9.6 7.7 9.2 97 0.2 W 9 13 5 7 1017.5 1017.5 0.2
30/02:00am 9.6 7.7 9.0 96 0.3 W 9 11 5 6 1017.6 1017.6 0.2
30/01:30am 9.6 8.2 9.0 96 0.3 NW 6 9 3 5 1017.7 1017.7 0.2
30/01:00am 10.5 8.4 9.7 95 0.4 NNW 11 15 6 8 1017.9 1017.9 0.2
30/12:30am 10.5 8.8 9.9 96 0.3 N 9 13 5 7 1017.8 1017.8 0.2
30/12:00am 11.4 9.9 10.6 95 0.4 WNW 9 11 5 6 1018.0 1018.0 0.2
 
Date/Time
EDT
Tmp

°C
App
Tmp
°C
Dew
Point
°C
Rel
Hum
%
Delta-T

°C
Wind Press
QNH
hPa
Press
MSL
hPa
Rain
since
9 am
mm
Dir
 
Spd
km/h
Gust
km/h
Spd
kts
Gust
kts
29/11:30pm 9.7 8.0 8.5 92 0.6 NE 7 9 4 5 1018.2 1018.2 0.2
29/11:00pm 10.9 9.2 9.9 93 0.5 WNW 9 13 5 7 1018.3 1018.3 0.2
29/10:30pm 11.1 9.4 9.9 92 0.6 NW 9 13 5 7 1018.4 1018.4 0.2
29/10:00pm 10.5 10.0 9.5 93 0.5 W 2 11 1 6 1018.5 1018.5 0.2
29/09:30pm 11.4 11.5 10.0 91 0.7 CALM 0 0 0 0 1018.4 1018.4 0.2
29/09:00pm 12.3 11.4 10.6 89 0.9 SSE 6 9 3 5 1018.1 1018.1 0.2
29/08:30pm 12.4 12.6 10.5 88 1.0 CALM 0 0 0 0 1017.8 1017.8 0.2
29/08:00pm 12.8 13.0 10.7 87 1.1 CALM 0 0 0 0 1017.5 1017.5 0.2
29/07:30pm 13.4 13.6 10.5 82 1.5 CALM 0 0 0 0 1017.1 1017.1 0.2
29/07:00pm 13.5 12.0 10.4 81 1.6 SE 9 11 5 6 1017.1 1017.1 0.2
29/06:30pm 13.6 12.1 10.5 81 1.6 SE 9 15 5 8 1016.7 1016.7 0.2
29/06:00pm 13.9 12.1 10.9 82 1.6 SE 11 17 6 9 1016.5 1016.5 0.2
29/05:30pm 13.9 10.4 10.2 78 1.9 SSE 19 26 10 14 1016.2 1016.2 0.2
29/05:00pm 13.9 9.9 10.5 80 1.8 SSE 22 30 12 16 1016.1 1016.1 0.2
29/04:30pm 13.4 9.5 10.9 85 1.3 SSE 22 28 12 15 1016.0 1016.0 0.2
29/04:00pm 13.6 9.7 10.9 84 1.4 SSE 22 28 12 15 1015.7 1015.7 0.2
29/03:30pm 13.6 10.0 11.9 89 0.9 SSE 22 26 12 14 1015.7 1015.7 0.2
29/03:13pm 13.0 9.4 11.9 93 0.6 S 22 28 12 15 1015.5 1015.5 0.2
29/03:00pm 13.0 9.8 11.9 93 0.6 S 20 28 11 15 1015.6 1015.6 0.2
29/02:40pm 12.9 8.1 11.8 93 0.6 S 28 37 15 20 1015.6 1015.6 0.0
29/02:30pm 13.5 8.7 11.8 89 0.9 S 28 35 15 19 1015.2 1015.2 0.0
29/02:00pm 16.9 12.6 10.7 67 3.3 SW 24 30 13 16 1014.9 1014.9 0.0
29/01:30pm 18.4 14.4 9.2 55 4.8 W 20 32 11 17 1014.5 1014.5 0.0
29/01:00pm 18.1 12.5 8.6 54 4.9 WNW 28 39 15 21 1014.4 1014.4 0.0
29/12:30pm 17.9 11.9 8.6 54 4.8 NW 30 37 16 20 1014.3 1014.3 0.0
29/12:00pm 17.5 11.4 8.1 54 4.8 NW 30 41 16 22 1014.3 1014.3 0.0
29/11:30am 17.6 12.6 8.0 53 4.9 NNW 24 37 13 20 1014.5 1014.5 0.0
29/11:00am 16.7 11.9 7.3 54 4.7 NNW 22 37 12 20 1014.5 1014.5 0.0
29/10:30am 16.5 12.2 7.0 53 4.7 NNW 19 32 10 17 1014.7 1014.7 0.0
29/10:00am 16.2 10.5 6.9 54 4.6 NW 26 39 14 21 1014.5 1014.5 0.0
29/09:30am 16.4 11.0 6.4 51 4.9 NNW 24 33 13 18 1014.6 1014.6 0.0
29/09:00am 15.0 10.0 6.6 57 4.1 NNW 22 37 12 20 1014.7 1014.7 0.2
29/08:30am 13.9 8.1 6.4 60 3.6 NNW 26 33 14 18 1014.6 1014.6 0.2
29/08:00am 13.2 8.5 6.0 61 3.4 NW 20 28 11 15 1014.8 1014.8 0.2
29/07:30am 12.4 7.8 6.3 66 2.9 NW 20 26 11 14 1014.4 1014.4 0.2
29/07:00am 12.3 7.6 5.9 65 3.0 NW 20 28 11 15 1014.3 1014.3 0.2
29/06:30am 12.9 8.8 6.2 64 3.2 NW 17 28 9 15 1014.1 1014.1 0.2
29/06:00am 12.8 7.6 5.5 61 3.4 NNW 22 32 12 17 1014.2 1014.2 0.2
29/05:30am 11.3 8.7 5.9 69 2.5 NNW 9 13 5 7 1014.2 1014.2 0.2
29/05:00am 11.2 6.7 6.1 71 2.4 N 19 28 10 15 1014.1 1014.1 0.2
29/04:30am 11.5 7.1 6.4 71 2.4 NW 19 28 10 15 1015.5 1015.5 0.2
29/04:00am 10.2 6.1 6.3 77 1.8 NNW 17 22 9 12 1014.9 1014.9 0.2
29/03:30am 11.1 6.7 6.7 74 2.1 NNW 19 26 10 14 1015.0 1015.0 0.2
29/03:00am 11.0 6.6 6.5 74 2.1 NNW 19 26 10 14 1015.1 1015.1 0.2
29/02:30am 11.6 7.6 6.5 71 2.4 NNW 17 24 9 13 1015.5 1015.5 0.2
29/02:00am 11.3 7.4 7.1 75 2.0 NNW 17 20 9 11 1015.8 1015.8 0.2
29/01:30am 12.0 7.4 6.3 68 2.7 NNW 20 28 11 15 1015.7 1015.7 0.2
29/01:00am 11.5 7.5 6.6 72 2.3 NNW 17 24 9 13 1016.1 1016.1 0.2
29/12:30am 12.2 8.5 6.5 68 2.7 N 15 20 8 11 1016.2 1016.2 0.2
29/12:00am 10.3 9.5 8.0 86 1.1 N 2 7 1 4 1016.7 1016.7 0.2
 
Date/Time
EDT
Tmp

°C
App
Tmp
°C
Dew
Point
°C
Rel
Hum
%
Delta-T

°C
Wind Press
QNH
hPa
Press
MSL
hPa
Rain
since
9 am
mm
Dir
 
Spd
km/h
Gust
km/h
Spd
kts
Gust
kts
28/11:30pm 10.3 8.3 8.5 89 0.9 NW 9 11 5 6 1017.2 1017.2 0.2
28/11:00pm 10.3 8.3 8.5 89 0.9 NW 9 9 5 5 1017.6 1017.6 0.2
28/10:30pm 11.5 10.0 9.3 86 1.1 NW 7 13 4 7 1017.9 1017.9 0.2
28/10:00pm 11.4 10.0 9.0 85 1.2 NW 6 9 3 5 1018.1 1018.1 0.2
28/09:30pm 10.5 8.8 8.5 87 1.0 NW 7 9 4 5 1018.2 1018.2 0.2
28/09:00pm 12.0 11.7 8.8 81 1.6 CALM 0 0 0 0 1018.1 1018.1 0.2
28/08:30pm 12.4 12.2 9.0 80 1.7 CALM 0 0 0 0 1018.0 1018.0 0.2
28/08:00pm 13.0 12.0 9.0 77 2.0 S 4 6 2 3 1017.9 1017.9 0.2
28/07:30pm 13.8 12.4 8.8 72 2.5 SSE 6 7 3 4 1017.9 1017.9 0.2
28/07:00pm 15.0 13.4 8.7 66 3.2 ESE 7 9 4 5 1017.9 1017.9 0.2
28/06:30pm 15.8 13.7 8.3 61 3.8 SE 9 13 5 7 1017.9 1017.9 0.2
28/06:00pm 16.4 12.7 8.1 58 4.2 SE 17 22 9 12 1017.6 1017.6 0.2
28/05:30pm 17.3 13.5 7.6 53 4.9 SE 17 22 9 12 1017.7 1017.7 0.2
28/05:00pm 17.5 13.6 7.3 51 5.1 SSE 17 20 9 11 1017.8 1017.8 0.2
28/04:30pm 17.0 12.9 6.1 48 5.3 SSE 17 22 9 12 1017.8 1017.8 0.2
28/04:00pm 17.7 14.2 7.1 50 5.3 SSE 15 19 8 10 1018.1 1018.1 0.2
28/03:30pm 17.3 13.2 6.3 48 5.4 SE 17 20 9 11 1018.3 1018.3 0.2
28/03:00pm 17.3 13.4 7.1 51 5.1 SSE 17 20 9 11 1018.5 1018.5 0.2
28/02:30pm 17.3 13.3 6.8 50 5.2 SSE 17 26 9 14 1018.7 1018.7 0.2
28/02:00pm 16.7 13.2 7.0 52 4.8 SE 15 20 8 11 1019.1 1019.1 0.2
28/01:30pm 17.3 14.3 6.0 47 5.5 SW 11 19 6 10 1019.7 1019.7 0.2
28/01:00pm 16.2 12.6 5.0 47 5.3 W 13 19 7 10 1020.0 1020.0 0.0
28/12:30pm 15.7 11.7 5.1 49 5.0 W 15 24 8 13 1020.5 1020.5 0.0
28/12:00pm 16.1 11.8 5.4 49 5.1 WNW 17 26 9 14 1020.8 1020.8 0.0
28/11:30am 15.7 11.5 5.9 52 4.7 WNW 17 26 9 14 1021.0 1021.0 0.0

Latest Capital City Observations: Canberra | Sydney | Melbourne | Brisbane | Adelaide | Perth | Hobart | Darwin

Other Formats:

Comma delimited format used in spreadsheet applications
http://www.bom.gov.au/fwo/IDT60901/IDT60901.94975.axf

JavaScript Object Notation format (JSON) in row-major order
http://www.bom.gov.au/fwo/IDT60901/IDT60901.94975.json